createdAt,value
2022-12-03T00:00:24.159Z,47.72
2022-12-03T00:01:31.080Z,48.71
2022-12-03T00:02:34.785Z,46.51
2022-12-03T00:03:41.043Z,46.33
2022-12-03T00:04:44.637Z,46.92
2022-12-03T00:05:50.668Z,47.88
2022-12-03T00:06:55.002Z,47.04
2022-12-03T00:08:01.350Z,49.69
2022-12-03T00:09:05.891Z,49.12
2022-12-03T00:10:15.036Z,48.19
2022-12-03T00:11:18.721Z,49.69
2022-12-03T00:12:27.553Z,50.23
2022-12-03T00:13:31.268Z,52.03
2022-12-03T00:14:42.886Z,50.01
2022-12-03T00:15:50.804Z,50.05
2022-12-03T00:16:56.957Z,51.35
2022-12-03T00:18:04.205Z,50.59
2022-12-03T00:19:09.147Z,50.28
2022-12-03T00:20:23.300Z,49.15
2022-12-03T00:21:26.831Z,52.65
2022-12-03T00:22:33.040Z,49.60
2022-12-03T00:23:41.917Z,48.56
2022-12-03T00:24:49.860Z,50.19
2022-12-03T00:25:53.535Z,51.93
2022-12-03T00:26:59.842Z,51.24
2022-12-03T00:28:03.548Z,50.96
2022-12-03T00:29:11.489Z,50.46
2022-12-03T00:30:15.405Z,50.67
2022-12-03T00:31:24.394Z,52.98
2022-12-03T00:32:28.073Z,51.25
2022-12-03T00:33:34.401Z,52.35
2022-12-03T00:34:38.701Z,53.87
2022-12-03T00:35:44.850Z,53.01
2022-12-03T00:36:49.185Z,53.73
2022-12-03T00:37:56.229Z,52.34
2022-12-03T00:38:59.918Z,52.34
2022-12-03T00:40:08.729Z,52.77
2022-12-03T00:41:12.394Z,51.93
2022-12-03T00:42:18.529Z,51.73
2022-12-03T00:43:23.141Z,52.35
2022-12-03T00:44:29.833Z,52.21
2022-12-03T00:45:37.142Z,52.91
2022-12-03T00:46:46.073Z,52.31
2022-12-03T00:47:53.154Z,51.82
2022-12-03T00:48:56.720Z,51.86
2022-12-03T00:50:02.931Z,50.92
2022-12-03T00:51:07.574Z,50.04
2022-12-03T00:52:15.161Z,51.74
2022-12-03T00:53:21.546Z,53.02
2022-12-03T00:54:31.893Z,52.72
2022-12-03T00:55:35.968Z,51.59
2022-12-03T00:56:43.012Z,51.56
2022-12-03T00:57:46.787Z,51.93
2022-12-03T00:58:53.275Z,49.27
2022-12-03T00:59:56.844Z,51.56
2022-12-03T01:01:03.034Z,51.05
2022-12-03T01:02:10.327Z,51.44
2022-12-03T01:03:16.635Z,52.81
2022-12-03T01:04:20.268Z,53.32
2022-12-03T01:05:26.489Z,52.37
2022-12-03T01:06:30.025Z,53.04
2022-12-03T01:07:37.805Z,54.76
2022-12-03T01:08:41.267Z,54.34
2022-12-03T01:09:47.613Z,56.65
2022-12-03T01:10:51.715Z,57.73
2022-12-03T01:11:59.628Z,68.21
2022-12-03T01:13:04.111Z,70.51
2022-12-03T01:14:14.397Z,67.72
2022-12-03T01:15:18.278Z,67.07
2022-12-03T01:16:24.517Z,61.11
2022-12-03T01:17:30.892Z,68.44
2022-12-03T01:18:38.147Z,67.21
2022-12-03T01:19:47.887Z,67.72
2022-12-03T01:20:54.550Z,67.30
2022-12-03T01:21:58.042Z,68.33
2022-12-03T01:23:04.221Z,63.04
2022-12-03T01:24:09.014Z,63.40
2022-12-03T01:25:15.566Z,64.49
2022-12-03T01:26:19.282Z,54.86
2022-12-03T01:27:25.471Z,56.44
2022-12-03T01:28:29.659Z,56.49
2022-12-03T01:29:36.797Z,56.57
2022-12-03T01:30:55.337Z,51.56
2022-12-03T01:32:14.345Z,50.41
2022-12-03T01:33:20.578Z,49.94
2022-12-03T01:34:26.816Z,48.72
2022-12-03T01:35:33.677Z,49.89
2022-12-03T01:36:40.829Z,50.19
2022-12-03T01:37:46.904Z,51.56
2022-12-03T01:38:50.577Z,49.09
2022-12-03T01:39:58.314Z,48.91
2022-12-03T01:41:11.465Z,48.53
2022-12-03T01:42:24.555Z,49.68
2022-12-03T01:43:31.067Z,48.78
2022-12-03T01:44:41.506Z,49.13
2022-12-03T01:45:47.456Z,50.58
2022-12-03T01:46:59.728Z,49.36
2022-12-03T01:48:03.534Z,47.26
2022-12-03T01:49:20.374Z,48.19
2022-12-03T01:50:35.986Z,50.79
2022-12-03T01:51:39.599Z,49.71
2022-12-03T01:52:47.272Z,48.69
2022-12-03T01:53:51.070Z,49.17
2022-12-03T01:55:01.459Z,48.69
2022-12-03T01:56:05.539Z,49.16
2022-12-03T01:57:25.297Z,48.22
2022-12-03T01:58:31.269Z,49.66
2022-12-03T01:59:42.460Z,46.26
2022-12-03T02:00:45.904Z,51.68
2022-12-03T02:01:52.393Z,48.39
2022-12-03T02:03:00.612Z,50.11
2022-12-03T02:04:08.043Z,49.54
2022-12-03T02:05:25.090Z,49.63
2022-12-03T02:06:31.325Z,47.81
2022-12-03T02:07:38.222Z,47.55
2022-12-03T02:08:41.981Z,48.22
2022-12-03T02:09:48.975Z,48.36
2022-12-03T02:10:52.949Z,49.30
2022-12-03T02:11:59.040Z,49.86
2022-12-03T02:13:09.339Z,48.53
2022-12-03T02:14:23.067Z,48.23
2022-12-03T02:15:27.995Z,47.43
2022-12-03T02:16:34.771Z,47.22
2022-12-03T02:17:39.952Z,48.10
2022-12-03T02:18:47.179Z,48.54
2022-12-03T02:19:53.846Z,48.18
2022-12-03T02:21:23.427Z,50.11
2022-12-03T02:22:43.758Z,50.94
2022-12-03T02:24:08.457Z,54.89
2022-12-03T02:25:23.579Z,52.66
2022-12-03T02:26:30.989Z,55.11
2022-12-03T02:27:34.850Z,60.72
2022-12-03T02:28:41.533Z,64.03
2022-12-03T02:29:45.523Z,57.91
2022-12-03T02:30:51.717Z,56.65
2022-12-03T02:31:56.564Z,56.70
2022-12-03T02:33:04.163Z,58.70
2022-12-03T02:34:11.791Z,52.91
2022-12-03T02:35:20.667Z,51.49
2022-12-03T02:36:24.783Z,52.70
2022-12-03T02:37:39.649Z,54.13
2022-12-03T02:38:48.625Z,49.07
2022-12-03T02:40:01.305Z,46.16
2022-12-03T02:41:34.570Z,45.24
2022-12-03T02:42:42.824Z,46.90
2022-12-03T02:43:47.627Z,47.46
2022-12-03T02:44:52.169Z,46.63
2022-12-03T02:46:04.601Z,46.74
2022-12-03T02:47:08.570Z,46.95
2022-12-03T02:48:21.267Z,47.31
2022-12-03T02:49:24.947Z,46.26
2022-12-03T02:50:37.086Z,47.44
2022-12-03T02:51:41.295Z,49.77
2022-12-03T02:52:51.080Z,48.26
2022-12-03T02:53:58.592Z,47.47
2022-12-03T02:55:10.239Z,46.44
2022-12-03T02:56:25.844Z,48.94
2022-12-03T02:57:29.835Z,46.64
2022-12-03T02:58:38.171Z,48.09
2022-12-03T02:59:45.470Z,48.38
2022-12-03T03:00:53.524Z,47.09
2022-12-03T03:01:57.572Z,46.91
2022-12-03T03:03:07.281Z,47.59
2022-12-03T03:04:11.044Z,47.50
2022-12-03T03:05:23.876Z,44.78
2022-12-03T03:06:27.537Z,47.11
2022-12-03T03:07:33.991Z,45.29
2022-12-03T03:08:43.352Z,45.86
2022-12-03T03:09:47.528Z,46.26
2022-12-03T03:10:57.172Z,47.36
2022-12-03T03:12:03.470Z,46.26
2022-12-03T03:13:15.235Z,45.98
2022-12-03T03:14:18.995Z,47.00
2022-12-03T03:15:27.423Z,45.83
2022-12-03T03:16:35.042Z,45.02
2022-12-03T03:17:42.196Z,47.11
2022-12-03T03:18:45.989Z,45.45
2022-12-03T03:19:52.356Z,46.64
2022-12-03T03:20:56.127Z,47.74
2022-12-03T03:22:03.694Z,46.73
2022-12-03T03:23:17.979Z,46.83
2022-12-03T03:24:25.726Z,45.14
2022-12-03T03:25:29.213Z,45.72
2022-12-03T03:26:35.570Z,48.50
2022-12-03T03:27:43.721Z,46.49
2022-12-03T03:28:54.971Z,45.91
2022-12-03T03:30:00.513Z,44.90
2022-12-03T03:31:12.332Z,45.13
2022-12-03T03:32:16.567Z,45.15
2022-12-03T03:33:24.389Z,44.85
2022-12-03T03:34:29.001Z,47.46
2022-12-03T03:35:35.535Z,48.11
2022-12-03T03:36:40.249Z,46.76
2022-12-03T03:37:46.534Z,47.53
2022-12-03T03:38:51.831Z,44.70
2022-12-03T03:39:59.075Z,47.01
2022-12-03T03:41:06.446Z,47.75
2022-12-03T03:42:12.813Z,45.38
2022-12-03T03:43:19.817Z,46.42
2022-12-03T03:44:27.773Z,46.92
2022-12-03T03:45:31.366Z,47.53
2022-12-03T03:46:40.043Z,48.76
2022-12-03T03:47:44.150Z,48.17
2022-12-03T03:48:52.661Z,47.51
2022-12-03T03:49:57.548Z,46.38
2022-12-03T03:51:09.701Z,47.56
2022-12-03T03:52:16.210Z,47.75
2022-12-03T03:53:23.345Z,48.33
2022-12-03T03:54:30.917Z,48.33
2022-12-03T03:55:35.956Z,46.17
2022-12-03T03:56:42.978Z,46.18
2022-12-03T03:57:47.695Z,45.65
2022-12-03T03:58:59.492Z,45.85
2022-12-03T04:00:06.320Z,45.88
2022-12-03T04:01:16.826Z,46.02
2022-12-03T04:02:25.081Z,46.42
2022-12-03T04:03:32.259Z,47.77
2022-12-03T04:04:37.884Z,47.49
2022-12-03T04:05:44.663Z,46.16
2022-12-03T04:06:50.399Z,44.74
2022-12-03T04:07:56.489Z,44.60
2022-12-03T04:09:00.015Z,47.53
2022-12-03T04:10:26.699Z,46.95
2022-12-03T04:11:46.041Z,49.13
2022-12-03T04:12:57.853Z,48.91
2022-12-03T04:14:07.254Z,54.60
2022-12-03T04:15:11.208Z,56.12
2022-12-03T04:16:18.373Z,57.01
2022-12-03T04:17:22.015Z,64.15
2022-12-03T04:18:41.503Z,62.43
2022-12-03T04:19:47.722Z,66.63
2022-12-03T04:20:51.412Z,68.63
2022-12-03T04:22:10.045Z,62.66
2022-12-03T04:23:16.323Z,62.32
2022-12-03T04:24:20.688Z,54.20
2022-12-03T04:25:39.177Z,56.49
2022-12-03T04:26:57.840Z,63.26
2022-12-03T04:28:19.046Z,61.15
2022-12-03T04:29:28.750Z,58.29
2022-12-03T04:30:32.181Z,57.20
2022-12-03T04:31:50.776Z,57.74
2022-12-03T04:33:09.289Z,55.14
2022-12-03T04:34:27.916Z,54.46
2022-12-03T04:35:46.806Z,54.28
2022-12-03T04:36:51.005Z,54.24
2022-12-03T04:37:58.038Z,50.41
2022-12-03T04:39:01.621Z,50.33
2022-12-03T04:40:29.860Z,48.65
2022-12-03T04:41:34.243Z,48.67
2022-12-03T04:42:40.370Z,48.60
2022-12-03T04:43:58.731Z,48.98
2022-12-03T04:45:08.300Z,48.36
2022-12-03T04:46:27.956Z,49.38
2022-12-03T04:47:40.359Z,48.73
2022-12-03T04:48:45.421Z,50.09
2022-12-03T04:49:54.289Z,49.46
2022-12-03T04:50:58.095Z,48.02
2022-12-03T04:52:04.457Z,49.57
2022-12-03T04:53:08.841Z,48.54
2022-12-03T04:54:14.804Z,49.63
2022-12-03T04:55:20.973Z,49.28
2022-12-03T04:56:24.608Z,50.05
2022-12-03T04:57:30.643Z,48.24
2022-12-03T04:58:35.153Z,50.07
2022-12-03T04:59:41.964Z,50.62
2022-12-03T05:00:48.121Z,50.66
2022-12-03T05:01:54.211Z,48.44
2022-12-03T05:02:57.873Z,47.06
2022-12-03T05:04:04.917Z,48.85
2022-12-03T05:05:10.995Z,51.03
2022-12-03T05:06:17.011Z,49.21
2022-12-03T05:07:23.135Z,48.60
2022-12-03T05:08:26.561Z,49.66
2022-12-03T05:09:33.775Z,48.92
2022-12-03T05:10:37.217Z,51.33
2022-12-03T05:11:45.629Z,51.92
2022-12-03T05:12:49.104Z,51.44
2022-12-03T05:13:55.158Z,50.80
2022-12-03T05:15:03.087Z,48.95
2022-12-03T05:16:09.656Z,51.44
2022-12-03T05:17:15.877Z,52.00
2022-12-03T05:18:19.431Z,52.19
2022-12-03T05:19:46.333Z,51.67
2022-12-03T05:20:53.690Z,52.52
2022-12-03T05:21:57.359Z,50.26
2022-12-03T05:23:03.436Z,50.59
2022-12-03T05:24:10.850Z,51.13
2022-12-03T05:25:15.808Z,50.21
2022-12-03T05:26:22.965Z,51.54
2022-12-03T05:27:26.790Z,51.63
2022-12-03T05:28:32.973Z,53.84
2022-12-03T05:29:36.659Z,53.87
2022-12-03T05:30:42.971Z,52.39
2022-12-03T05:31:50.077Z,53.96
2022-12-03T05:32:56.417Z,55.53
2022-12-03T05:34:00.005Z,53.29
2022-12-03T05:35:07.935Z,54.32
2022-12-03T05:36:11.817Z,50.71
2022-12-03T05:37:18.952Z,52.53
2022-12-03T05:38:23.650Z,56.29
2022-12-03T05:39:29.760Z,54.83
2022-12-03T05:40:33.265Z,54.05
2022-12-03T05:41:51.831Z,55.40
2022-12-03T05:43:01.532Z,58.13
2022-12-03T05:44:06.838Z,56.55
2022-12-03T05:45:13.880Z,57.32
2022-12-03T05:46:17.512Z,57.88
2022-12-03T05:47:26.396Z,59.90
2022-12-03T05:48:30.705Z,58.46
2022-12-03T05:49:36.993Z,56.23
2022-12-03T05:50:44.262Z,58.40
2022-12-03T05:51:58.424Z,59.07
2022-12-03T05:53:02.595Z,60.08
2022-12-03T05:54:09.614Z,62.50
2022-12-03T05:55:13.502Z,63.35
2022-12-03T05:56:19.657Z,60.98
2022-12-03T05:57:23.198Z,62.28
2022-12-03T05:58:29.384Z,62.29
2022-12-03T05:59:33.704Z,61.06
2022-12-03T06:00:42.984Z,60.34
2022-12-03T06:01:48.627Z,60.36
2022-12-03T06:02:58.691Z,58.93
2022-12-03T06:04:02.679Z,55.73
2022-12-03T06:05:14.096Z,58.52
2022-12-03T06:06:20.257Z,55.73
2022-12-03T06:07:23.671Z,59.35
2022-12-03T06:08:29.984Z,59.98
2022-12-03T06:09:34.754Z,61.59
2022-12-03T06:10:41.711Z,61.40
2022-12-03T06:11:45.163Z,58.96
2022-12-03T06:12:51.363Z,60.51
2022-12-03T06:13:54.998Z,61.66
2022-12-03T06:15:01.417Z,58.66
2022-12-03T06:16:06.561Z,59.70
2022-12-03T06:17:13.305Z,62.33
2022-12-03T06:18:22.070Z,59.01
2022-12-03T06:19:25.575Z,58.81
2022-12-03T06:20:31.706Z,59.37
2022-12-03T06:21:36.054Z,59.21
2022-12-03T06:22:42.268Z,62.10
2022-12-03T06:23:48.354Z,62.82
2022-12-03T06:24:52.503Z,63.51
2022-12-03T06:25:59.011Z,64.91
2022-12-03T06:27:05.108Z,63.93
2022-12-03T06:28:11.087Z,63.81
2022-12-03T06:29:14.521Z,62.95
2022-12-03T06:30:21.110Z,64.54
2022-12-03T06:31:24.560Z,61.98
2022-12-03T06:32:31.702Z,67.39
2022-12-03T06:33:37.779Z,67.82
2022-12-03T06:34:43.834Z,70.01
2022-12-03T06:35:49.531Z,68.56
2022-12-03T06:36:55.688Z,72.20
2022-12-03T06:38:00.078Z,68.15
2022-12-03T06:39:07.652Z,70.36
2022-12-03T06:40:13.614Z,69.21
2022-12-03T06:41:19.682Z,71.65
2022-12-03T06:42:23.168Z,75.03
2022-12-03T06:43:31.163Z,76.46
2022-12-03T06:44:34.749Z,71.45
2022-12-03T06:45:46.154Z,73.40
2022-12-03T06:46:51.186Z,72.38
2022-12-03T06:47:57.337Z,79.55
2022-12-03T06:49:04.815Z,75.38
2022-12-03T06:50:12.469Z,84.93
2022-12-03T06:51:16.203Z,75.13
2022-12-03T06:52:23.025Z,83.05
2022-12-03T06:53:26.601Z,74.48
2022-12-03T06:54:34.043Z,75.34
2022-12-03T06:55:37.787Z,78.81
2022-12-03T06:56:45.597Z,76.56
2022-12-03T06:57:52.039Z,72.72
2022-12-03T06:58:55.943Z,72.20
2022-12-03T07:00:03.751Z,70.21
2022-12-03T07:01:07.734Z,67.87
2022-12-03T07:02:15.659Z,67.33
2022-12-03T07:03:19.367Z,72.95
2022-12-03T07:04:28.305Z,74.48
2022-12-03T07:05:32.962Z,72.23
2022-12-03T07:06:39.265Z,71.91
2022-12-03T07:07:42.889Z,69.30
2022-12-03T07:08:49.025Z,72.08
2022-12-03T07:09:52.691Z,74.52
2022-12-03T07:11:01.613Z,75.70
2022-12-03T07:12:05.713Z,71.79
2022-12-03T07:13:12.223Z,73.69
2022-12-03T07:14:16.313Z,77.57
2022-12-03T07:15:22.386Z,77.18
2022-12-03T07:16:27.327Z,74.11
2022-12-03T07:17:35.143Z,74.29
2022-12-03T07:18:38.533Z,73.62
2022-12-03T07:19:47.405Z,72.65
2022-12-03T07:20:50.865Z,74.33
2022-12-03T07:22:02.068Z,76.56
2022-12-03T07:23:05.544Z,72.79
2022-12-03T07:24:12.585Z,72.80
2022-12-03T07:25:21.409Z,72.51
2022-12-03T07:26:29.630Z,70.75
2022-12-03T07:27:34.125Z,74.94
2022-12-03T07:28:40.342Z,72.87
2022-12-03T07:29:46.538Z,73.30
2022-12-03T07:30:50.173Z,72.74
2022-12-03T07:31:56.309Z,74.74
2022-12-03T07:33:00.716Z,73.20
2022-12-03T07:34:07.305Z,71.37
2022-12-03T07:35:14.008Z,68.51
2022-12-03T07:36:22.310Z,67.60
2022-12-03T07:37:28.385Z,74.85
2022-12-03T07:38:32.837Z,79.80
2022-12-03T07:39:38.998Z,73.46
2022-12-03T07:40:42.793Z,74.45
2022-12-03T07:41:48.930Z,73.41
2022-12-03T07:42:52.457Z,70.82
2022-12-03T07:43:59.959Z,79.39
2022-12-03T07:45:03.533Z,74.90
2022-12-03T07:46:10.254Z,80.59
2022-12-03T07:47:16.565Z,80.16
2022-12-03T07:48:21.317Z,77.28
2022-12-03T07:49:28.296Z,90.34
2022-12-03T07:50:34.429Z,101.56
2022-12-03T07:51:40.732Z,92.66
2022-12-03T07:52:44.428Z,97.37
2022-12-03T07:53:50.594Z,97.74
2022-12-03T07:54:55.021Z,86.22
2022-12-03T07:56:01.623Z,92.27
2022-12-03T07:57:07.933Z,81.52
2022-12-03T07:58:11.495Z,77.84
2022-12-03T07:59:18.080Z,76.92
2022-12-03T08:00:25.991Z,77.83
2022-12-03T08:01:32.320Z,82.45
2022-12-03T08:02:36.972Z,93.70
2022-12-03T08:03:43.292Z,88.78
2022-12-03T08:04:49.457Z,86.25
2022-12-03T08:05:58.984Z,80.82
2022-12-03T08:07:05.316Z,75.96
2022-12-03T08:08:09.029Z,72.03
2022-12-03T08:09:16.416Z,70.89
2022-12-03T08:10:20.029Z,80.25
2022-12-03T08:11:32.183Z,76.79
2022-12-03T08:12:42.862Z,76.89
2022-12-03T08:13:49.216Z,76.86
2022-12-03T08:14:53.282Z,76.44
2022-12-03T08:16:04.129Z,75.68
2022-12-03T08:17:13.591Z,74.00
2022-12-03T08:18:22.446Z,70.73
2022-12-03T08:19:27.295Z,76.95
2022-12-03T08:20:40.815Z,73.00
2022-12-03T08:21:50.509Z,74.93
2022-12-03T08:22:57.632Z,75.23
2022-12-03T08:24:18.390Z,74.54
2022-12-03T08:25:27.867Z,77.82
2022-12-03T08:26:34.021Z,74.10
2022-12-03T08:27:37.510Z,72.54
2022-12-03T08:28:44.624Z,75.22
2022-12-03T08:29:48.165Z,74.61
2022-12-03T08:31:06.203Z,78.81
2022-12-03T08:32:12.318Z,76.24
2022-12-03T08:33:31.339Z,77.26
2022-12-03T08:34:44.786Z,76.53
2022-12-03T08:35:51.387Z,79.28
2022-12-03T08:37:09.129Z,72.84
2022-12-03T08:38:13.983Z,73.73
2022-12-03T08:39:38.021Z,73.16
2022-12-03T08:40:49.266Z,74.49
2022-12-03T08:42:15.121Z,71.43
2022-12-03T08:43:25.880Z,75.57
2022-12-03T08:44:38.073Z,79.20
2022-12-03T08:45:46.139Z,76.63
2022-12-03T08:46:57.456Z,76.08
2022-12-03T08:48:23.323Z,78.90
2022-12-03T08:49:29.516Z,77.85
2022-12-03T08:50:39.971Z,72.02
2022-12-03T08:51:47.314Z,72.42
2022-12-03T08:52:57.837Z,85.05
2022-12-03T08:54:15.883Z,82.15
2022-12-03T08:55:36.367Z,77.08
2022-12-03T08:56:45.471Z,77.95
2022-12-03T08:57:53.310Z,77.90
2022-12-03T08:59:03.827Z,86.62
2022-12-03T09:00:21.192Z,95.87
2022-12-03T09:01:36.793Z,80.87
2022-12-03T09:02:51.361Z,82.91
2022-12-03T09:04:16.865Z,77.61
2022-12-03T09:05:28.056Z,76.53
2022-12-03T09:06:31.701Z,78.81
2022-12-03T09:07:38.056Z,77.86
2022-12-03T09:08:44.415Z,77.09
2022-12-03T09:09:52.488Z,76.48
2022-12-03T09:11:04.481Z,81.40
2022-12-03T09:12:12.178Z,78.58
2022-12-03T09:13:16.991Z,75.99
2022-12-03T09:14:24.782Z,75.44
2022-12-03T09:15:30.685Z,79.19
2022-12-03T09:16:36.979Z,74.21
2022-12-03T09:17:44.029Z,77.58
2022-12-03T09:18:48.850Z,73.27
2022-12-03T09:19:55.479Z,76.01
2022-12-03T09:21:00.011Z,74.91
2022-12-03T09:22:06.362Z,79.67
2022-12-03T09:23:13.714Z,79.88
2022-12-03T09:24:20.195Z,77.11
2022-12-03T09:25:26.369Z,80.62
2022-12-03T09:26:32.736Z,81.97
2022-12-03T09:27:38.913Z,72.93
2022-12-03T09:28:46.550Z,74.50
2022-12-03T09:29:53.161Z,72.91
2022-12-03T09:31:00.609Z,75.52
2022-12-03T09:32:11.486Z,72.27
2022-12-03T09:33:29.103Z,77.29
2022-12-03T09:34:37.826Z,77.37
2022-12-03T09:35:44.830Z,77.53
2022-12-03T09:36:51.446Z,74.27
2022-12-03T09:37:56.975Z,75.58
2022-12-03T09:39:03.338Z,72.50
2022-12-03T09:40:16.019Z,69.43
2022-12-03T09:41:20.997Z,73.08
2022-12-03T09:42:29.136Z,70.36
2022-12-03T09:45:16.010Z,76.58
2022-12-03T09:46:41.501Z,82.97
2022-12-03T09:47:55.017Z,85.91
2022-12-03T09:49:17.517Z,82.89
2022-12-03T09:50:30.333Z,83.27
2022-12-03T09:51:40.298Z,85.96
2022-12-03T09:52:47.225Z,83.00
2022-12-03T09:54:02.829Z,83.23
2022-12-03T09:55:24.005Z,82.45
2022-12-03T09:56:33.353Z,86.00
2022-12-03T09:57:43.120Z,86.20
2022-12-03T09:58:49.567Z,85.88
2022-12-03T09:59:58.842Z,90.78
2022-12-03T10:01:06.550Z,81.92
2022-12-03T10:02:22.953Z,86.64
2022-12-03T10:03:34.972Z,84.54
2022-12-03T10:04:41.336Z,82.87
2022-12-03T10:05:48.472Z,86.56
2022-12-03T10:06:55.728Z,85.49
2022-12-03T10:08:09.007Z,93.14
2022-12-03T10:09:21.953Z,81.60
2022-12-03T10:10:31.106Z,82.11
2022-12-03T10:11:39.507Z,82.52
2022-12-03T10:12:44.789Z,82.17
2022-12-03T10:13:53.275Z,83.32
2022-12-03T10:14:57.217Z,80.30
2022-12-03T10:16:04.898Z,80.42
2022-12-03T10:17:13.440Z,79.79
2022-12-03T10:18:25.365Z,79.83
2022-12-03T10:19:35.940Z,77.00
2022-12-03T10:20:42.165Z,80.67
2022-12-03T10:21:45.619Z,79.69
2022-12-03T10:22:52.879Z,83.96
2022-12-03T10:24:27.239Z,81.47
2022-12-03T10:25:35.205Z,78.50
2022-12-03T10:26:43.773Z,82.58
2022-12-03T10:28:02.229Z,75.89
2022-12-03T10:29:13.798Z,77.06
2022-12-03T10:30:27.321Z,78.16
2022-12-03T10:31:39.732Z,78.80
2022-12-03T10:32:49.648Z,79.22
2022-12-03T10:34:02.125Z,81.83
2022-12-03T10:35:14.532Z,80.55
2022-12-03T10:36:36.716Z,83.00
2022-12-03T10:38:09.385Z,76.26
2022-12-03T10:39:29.445Z,78.34
2022-12-03T10:40:47.212Z,80.03
2022-12-03T10:42:18.019Z,80.30
2022-12-03T10:43:28.525Z,84.47
2022-12-03T10:44:35.934Z,81.57
2022-12-03T10:45:43.344Z,84.07
2022-12-03T10:47:09.513Z,83.55
2022-12-03T10:48:16.927Z,88.12
2022-12-03T10:49:23.511Z,87.08
2022-12-03T10:50:27.073Z,89.32
2022-12-03T10:51:34.434Z,98.81
2022-12-03T10:52:38.477Z,92.56
2022-12-03T10:53:45.303Z,85.27
2022-12-03T10:54:53.874Z,81.23
2022-12-03T10:56:08.767Z,87.56
2022-12-03T10:57:16.981Z,86.32
2022-12-03T10:58:27.792Z,82.36
2022-12-03T10:59:35.260Z,93.28
2022-12-03T11:00:41.360Z,94.65
2022-12-03T11:01:48.517Z,88.18
2022-12-03T11:02:56.739Z,95.86
2022-12-03T11:04:08.213Z,88.33
2022-12-03T11:05:20.551Z,91.31
2022-12-03T11:06:24.473Z,94.44
2022-12-03T11:07:30.862Z,103.20
2022-12-03T11:08:40.387Z,91.74
2022-12-03T11:09:47.855Z,96.26
2022-12-03T11:11:06.663Z,85.61
2022-12-03T11:12:23.918Z,88.85
2022-12-03T11:13:49.877Z,89.95
2022-12-03T11:15:08.365Z,89.89
2022-12-03T11:16:13.755Z,89.22
2022-12-03T11:17:52.261Z,90.45
2022-12-03T11:19:02.516Z,83.62
2022-12-03T11:20:35.403Z,81.41
2022-12-03T11:22:20.909Z,85.31
2022-12-03T11:24:11.809Z,80.06
2022-12-03T11:25:52.212Z,75.48
2022-12-03T11:27:27.585Z,81.78
2022-12-03T11:28:56.023Z,80.87
2022-12-03T11:30:04.915Z,78.10
2022-12-03T11:31:41.074Z,80.95
2022-12-03T11:33:06.409Z,77.85
2022-12-03T11:34:44.856Z,80.39
2022-12-03T11:36:31.714Z,83.38
2022-12-03T11:37:43.549Z,86.58
2022-12-03T11:38:54.782Z,85.01
2022-12-03T11:40:39.156Z,84.40
2022-12-03T11:42:40.764Z,84.77
2022-12-03T11:44:08.629Z,88.96
2022-12-03T11:45:26.187Z,90.40
2022-12-03T11:46:45.045Z,92.10
2022-12-03T11:48:08.892Z,92.99
2022-12-03T11:49:37.652Z,91.40
2022-12-03T11:50:45.621Z,92.54
2022-12-03T11:51:52.395Z,87.36
2022-12-03T11:53:04.974Z,84.41
2022-12-03T11:54:21.841Z,84.84
2022-12-03T11:55:35.005Z,77.33
2022-12-03T11:56:49.693Z,80.19
2022-12-03T11:58:06.771Z,76.30
2022-12-03T11:59:14.458Z,78.14
2022-12-03T12:00:25.753Z,77.93
2022-12-03T12:01:42.044Z,74.88
2022-12-03T12:02:48.670Z,75.37
2022-12-03T12:03:52.186Z,77.93
2022-12-03T12:04:58.315Z,79.84
2022-12-03T12:06:08.085Z,78.19
2022-12-03T12:07:12.367Z,77.27
2022-12-03T12:08:22.579Z,75.57
2022-12-03T12:09:55.534Z,71.45
2022-12-03T12:11:02.385Z,79.62
2022-12-03T12:12:31.042Z,74.25
2022-12-03T12:13:58.408Z,77.42
2022-12-03T12:15:44.549Z,84.13
2022-12-03T12:16:55.362Z,74.89
2022-12-03T12:18:40.593Z,81.76
2022-12-03T12:19:54.074Z,85.95
2022-12-03T12:21:42.112Z,90.38
2022-12-03T12:22:48.433Z,86.42
2022-12-03T12:23:51.782Z,83.26
2022-12-03T12:25:00.808Z,79.19
2022-12-03T12:26:07.711Z,78.57
2022-12-03T12:27:17.239Z,77.85
2022-12-03T12:28:23.221Z,72.86
2022-12-03T12:29:26.890Z,69.35
2022-12-03T12:30:33.782Z,70.84
2022-12-03T12:31:39.908Z,72.25
2022-12-03T12:32:51.146Z,72.82
2022-12-03T12:33:54.892Z,72.04
2022-12-03T12:35:08.412Z,70.91
2022-12-03T12:36:13.031Z,71.15
2022-12-03T12:37:24.991Z,72.15
2022-12-03T12:38:31.886Z,75.21
2022-12-03T12:39:36.400Z,76.49
2022-12-03T12:40:45.839Z,78.55
2022-12-03T12:41:52.489Z,78.96
2022-12-03T12:43:05.564Z,80.41
2022-12-03T12:44:14.691Z,80.24
2022-12-03T12:45:25.342Z,79.84
2022-12-03T12:46:48.438Z,80.31
2022-12-03T12:48:16.288Z,81.61
2022-12-03T12:49:27.024Z,81.13
2022-12-03T12:50:35.978Z,83.33
2022-12-03T12:51:45.345Z,80.88
2022-12-03T12:53:05.084Z,83.97
2022-12-03T12:54:17.256Z,81.71
2022-12-03T12:55:25.764Z,77.49
2022-12-03T12:56:35.414Z,76.12
2022-12-03T12:57:38.966Z,77.50
2022-12-03T12:58:45.789Z,75.87
2022-12-03T12:59:51.147Z,78.08
2022-12-03T13:01:01.358Z,77.21
2022-12-03T13:02:44.688Z,75.84
2022-12-03T13:03:56.386Z,75.22
2022-12-03T13:05:03.133Z,73.43
2022-12-03T13:06:17.022Z,72.57
2022-12-03T13:07:20.965Z,76.70
2022-12-03T13:08:33.227Z,81.40
2022-12-03T13:09:39.324Z,77.94
2022-12-03T13:10:47.280Z,78.11
2022-12-03T13:11:58.855Z,81.11
2022-12-03T13:13:23.440Z,83.64
2022-12-03T13:14:37.881Z,85.43
2022-12-03T13:15:50.768Z,86.80
2022-12-03T13:17:03.882Z,82.08
2022-12-03T13:18:26.317Z,79.67
2022-12-03T13:20:00.583Z,77.72
2022-12-03T13:21:24.209Z,74.86
2022-12-03T13:22:32.107Z,78.56
2022-12-03T13:23:39.933Z,79.63
2022-12-03T13:24:50.870Z,78.58
2022-12-03T13:26:03.762Z,84.69
2022-12-03T13:27:29.754Z,82.14
2022-12-03T13:28:36.361Z,79.20
2022-12-03T13:29:43.498Z,80.14
2022-12-03T13:30:47.320Z,79.26
2022-12-03T13:31:58.432Z,82.30
2022-12-03T13:33:13.748Z,84.13
2022-12-03T13:34:26.501Z,79.08
2022-12-03T13:35:36.550Z,80.10
2022-12-03T13:36:52.021Z,82.76
2022-12-03T13:38:04.594Z,89.62
2022-12-03T13:39:19.932Z,91.77
2022-12-03T13:40:33.106Z,86.15
2022-12-03T13:41:51.744Z,87.57
2022-12-03T13:42:58.097Z,84.84
2022-12-03T13:44:01.974Z,90.34
2022-12-03T13:45:33.916Z,90.67
2022-12-03T13:46:38.246Z,87.70
2022-12-03T13:47:48.053Z,93.74
2022-12-03T13:48:58.704Z,97.63
2022-12-03T13:50:32.304Z,91.77
2022-12-03T13:51:38.528Z,98.05
2022-12-03T13:52:47.464Z,98.54
2022-12-03T13:53:51.124Z,102.39
2022-12-03T13:55:00.415Z,101.39
2022-12-03T13:56:25.277Z,97.82
2022-12-03T13:57:31.345Z,89.50
2022-12-03T13:58:35.782Z,95.76
2022-12-03T13:59:42.346Z,97.33
2022-12-03T14:00:46.371Z,96.93
2022-12-03T14:01:54.250Z,99.26
2022-12-03T14:02:58.018Z,99.45
2022-12-03T14:04:05.320Z,96.59
2022-12-03T14:05:10.713Z,98.25
2022-12-03T14:06:17.530Z,96.93
2022-12-03T14:07:23.666Z,98.38
2022-12-03T14:08:30.044Z,97.51
2022-12-03T14:09:37.107Z,100.67
2022-12-03T14:10:40.854Z,100.00
2022-12-03T14:12:01.221Z,95.73
2022-12-03T14:13:07.320Z,97.08
2022-12-03T14:14:13.394Z,97.23
2022-12-03T14:15:21.695Z,91.01
2022-12-03T14:16:25.343Z,91.73
2022-12-03T14:17:33.296Z,93.28
2022-12-03T14:18:38.752Z,90.17
2022-12-03T14:19:44.988Z,88.28
2022-12-03T14:20:52.411Z,92.58
2022-12-03T14:21:56.106Z,87.82
2022-12-03T14:23:04.988Z,91.70
2022-12-03T14:24:08.728Z,97.52
2022-12-03T14:25:15.650Z,91.24
2022-12-03T14:26:20.210Z,89.44
2022-12-03T14:27:27.810Z,92.18
2022-12-03T14:28:34.934Z,96.63
2022-12-03T14:29:41.084Z,97.82
2022-12-03T14:30:44.611Z,97.86
2022-12-03T14:31:53.667Z,93.33
2022-12-03T14:33:00.180Z,91.80
2022-12-03T14:34:10.404Z,95.64
2022-12-03T14:35:14.332Z,95.92
2022-12-03T14:36:21.411Z,92.31
2022-12-03T14:37:26.287Z,98.41
2022-12-03T14:38:35.275Z,104.21
2022-12-03T14:39:42.233Z,98.58
2022-12-03T14:40:48.462Z,99.18
2022-12-03T14:42:07.343Z,98.77
2022-12-03T14:43:14.617Z,95.03
2022-12-03T14:44:18.156Z,90.90
2022-12-03T14:45:28.947Z,98.13
2022-12-03T14:46:32.527Z,97.47
2022-12-03T14:47:39.148Z,99.57
2022-12-03T14:48:43.381Z,99.21
2022-12-03T14:49:50.683Z,97.88
2022-12-03T14:50:54.081Z,102.76
2022-12-03T14:52:00.219Z,105.01
2022-12-03T14:53:06.472Z,107.49
2022-12-03T14:54:13.466Z,103.00
2022-12-03T14:55:19.816Z,99.98